Time;durP1;ratioP1;P1;durP2;ratioP2;P2;SDS_P1;SDS_P2;PMS_P1;PMS_P2;Temp;Humidity;BMP_temperature;BMP_pressure;BME280_temperature;BME280_humidity;BME280_pressure;Samples;Min_cycle;Max_cycle;Signal;HPM_P1;HPM_P2
2023/07/07 00:01:50;;;;;;;7.47;5.65;;;;;;;13.08;85.90;101981.03;5023263;28;20032;-77
2023/07/07 00:04:17;;;;;;;6.78;5.85;;;;;;;13.05;86.13;101975.34;5002171;28;20061;-77
2023/07/07 00:06:43;;;;;;;7.50;5.35;;;;;;;13.02;85.93;101970.50;5023662;28;20034;-75
2023/07/07 00:09:08;;;;;;;;;;;;;;;13.01;86.18;101979.63;5027117;28;20044;-78
2023/07/07 00:11:34;;;;;;;9.48;6.25;;;;;;;12.96;85.99;101972.31;4994698;28;19917;-76
2023/07/07 00:14:00;;;;;;;8.00;5.50;;;;;;;12.96;85.97;101974.19;5005888;28;20042;-77
2023/07/07 00:16:27;;;;;;;;;;;;;;;12.94;86.16;101974.47;5027984;28;20044;-76
2023/07/07 00:18:57;;;;;;;6.35;5.32;;;;;;;12.92;86.17;101975.75;5013688;28;20336;-77
2023/07/07 00:21:24;;;;;;;7.60;5.60;;;;;;;12.89;86.23;101970.91;5025086;28;20029;-79
2023/07/07 00:23:55;;;;;;;10.25;6.55;;;;;;;12.87;86.10;101967.66;5010522;28;20037;-75
2023/07/07 00:26:23;;;;;;;5.45;4.53;;;;;;;12.84;85.85;101964.41;5024672;28;20303;-77
2023/07/07 00:28:49;;;;;;;9.32;6.20;;;;;;;12.82;85.84;101973.81;5005490;28;20053;-78
2023/07/07 00:31:17;;;;;;;7.18;5.10;;;;;;;12.79;85.77;101975.09;5020308;28;20030;-76
2023/07/07 00:33:43;;;;;;;8.32;5.80;;;;;;;12.77;86.28;101969.19;5003090;28;20187;-76
2023/07/07 00:36:11;;;;;;;6.50;5.53;;;;;;;12.73;86.00;101976.13;5009492;28;20065;-77
2023/07/07 00:38:36;;;;;;;7.50;5.68;;;;;;;12.75;86.12;101975.88;5011933;28;20107;-78
2023/07/07 00:41:04;;;;;;;6.35;4.45;;;;;;;12.71;85.82;101980.13;5019977;28;20067;-77
2023/07/07 00:43:30;;;;;;;10.70;6.15;;;;;;;12.67;86.21;101984.41;5004403;28;20041;-76
2023/07/07 00:45:58;;;;;;;6.72;5.07;;;;;;;12.66;85.83;101988.94;5024076;28;20033;-77
2023/07/07 00:48:44;;;;;;;7.65;5.53;;;;;;;12.67;85.56;101979.03;5024247;28;20021;-77
2023/07/07 00:51:21;;;;;;;6.65;5.70;;;;;;;12.64;85.69;101976.84;5036166;28;20038;-76
2023/07/07 00:53:51;;;;;;;6.90;5.68;;;;;;;12.60;85.81;101983.78;5025940;28;20037;-77
2023/07/07 00:56:39;;;;;;;6.70;5.57;;;;;;;12.57;86.15;101982.41;4988251;28;20076;-78
2023/07/07 00:59:10;;;;;;;6.40;4.90;;;;;;;12.54;86.05;101986.44;4993529;28;20497;-78
2023/07/07 01:01:38;;;;;;;8.63;6.18;;;;;;;12.53;86.50;102000.09;5010974;28;20043;-79
2023/07/07 01:04:11;;;;;;;6.63;5.63;;;;;;;12.50;86.42;101996.03;5028268;28;20064;-77
2023/07/07 01:06:41;;;;;;;8.80;7.00;;;;;;;12.50;86.47;101996.03;5031152;28;20034;-78
2023/07/07 01:09:08;;;;;;;7.85;6.38;;;;;;;12.47;86.50;101993.88;5012075;28;20037;-75
2023/07/07 01:11:36;;;;;;;9.43;5.97;;;;;;;12.47;86.12;101990.38;5028325;28;20033;-76
2023/07/07 01:14:07;;;;;;;5.57;4.82;;;;;;;12.44;86.13;101996.22;5016018;28;20151;-78
2023/07/07 01:16:51;;;;;;;7.78;6.15;;;;;;;12.41;86.46;101994.88;5014447;28;20041;-77
2023/07/07 01:19:57;;;;;;;7.45;6.18;;;;;;;12.37;86.67;101991.06;5019323;28;20034;-77
2023/07/07 01:22:41;;;;;;;7.20;5.30;;;;;;;12.37;86.29;101992.94;5025951;28;20134;-76
2023/07/07 01:25:36;;;;;;;7.68;6.00;;;;;;;12.34;86.65;101991.56;5010500;28;20030;-75
2023/07/07 01:28:31;;;;;;;6.22;5.53;;;;;;;12.31;86.44;101992.06;5021743;28;20397;-77
2023/07/07 01:31:40;;;;;;;6.85;5.78;;;;;;;12.28;86.51;101988.00;5021778;28;20029;-77
2023/07/07 01:34:10;;;;;;;7.75;5.95;;;;;;;12.26;86.92;101992.81;4996928;28;20149;-77
2023/07/07 01:36:36;;;;;;;6.25;5.50;;;;;;;12.25;86.66;101999.22;5026712;28;20309;-77
2023/07/07 01:39:02;;;;;;;5.05;4.10;;;;;;;12.23;86.40;101996.00;5031732;28;20024;-78
2023/07/07 01:41:32;;;;;;;6.57;5.70;;;;;;;12.25;86.25;101998.41;5012512;28;20041;-79
2023/07/07 01:44:31;;;;;;;8.55;6.40;;;;;;;12.23;86.75;102000.56;5024387;28;20037;-76
2023/07/07 01:47:14;;;;;;;8.35;5.20;;;;;;;12.20;86.69;101996.50;5020731;28;20037;-76
2023/07/07 01:49:43;;;;;;;8.77;6.20;;;;;;;12.18;86.69;101993.22;4995363;28;20104;-78
2023/07/07 01:52:14;;;;;;;7.90;5.82;;;;;;;12.17;86.79;101997.00;5003395;28;20625;-77
2023/07/07 01:54:46;;;;;;;8.77;6.40;;;;;;;12.15;86.78;101998.31;5021792;28;20025;-75
2023/07/07 01:57:14;;;;;;;9.55;5.93;;;;;;;12.11;86.99;101992.59;5007390;28;20124;-77
2023/07/07 01:59:41;;;;;;;7.85;6.78;;;;;;;12.08;87.08;101985.06;5002488;28;20045;-78
2023/07/07 02:02:09;;;;;;;9.70;6.25;;;;;;;12.06;86.95;101989.88;5025630;28;20087;-77
2023/07/07 02:04:35;;;;;;;8.38;5.97;;;;;;;12.06;87.01;101981.00;5027838;28;20045;-76
2023/07/07 02:07:02;;;;;;;8.18;4.85;;;;;;;12.02;87.03;101981.50;5019171;28;20073;-78
2023/07/07 02:09:30;;;;;;;7.47;6.10;;;;;;;12.04;86.52;101975.88;5003216;28;20041;-76
2023/07/07 02:11:56;;;;;;;6.55;5.85;;;;;;;12.03;86.72;101982.31;4987003;28;20115;-79
2023/07/07 02:14:22;;;;;;;7.00;5.45;;;;;;;12.00;86.54;101985.50;4996374;28;20037;-77
2023/07/07 02:16:49;;;;;;;15.43;6.75;;;;;;;11.98;87.10;101992.97;5021537;28;20045;-77
2023/07/07 02:19:16;;;;;;;7.07;6.13;;;;;;;11.94;86.99;101981.94;5034592;28;20034;-77
2023/07/07 02:21:42;;;;;;;6.43;5.72;;;;;;;11.94;87.07;101994.56;5022531;28;20091;-78
2023/07/07 02:24:08;;;;;;;7.65;6.20;;;;;;;11.91;86.78;101992.34;5000967;28;20034;-77
2023/07/07 02:26:34;;;;;;;6.53;4.53;;;;;;;11.92;86.26;101988.59;5012808;28;20049;-77
2023/07/07 02:28:59;;;;;;;5.57;4.78;;;;;;;11.91;86.80;101987.78;5008853;28;20040;-77
2023/07/07 02:31:26;;;;;;;6.88;5.43;;;;;;;11.89;86.80;101979.19;5028327;28;20052;-76
2023/07/07 02:33:53;;;;;;;7.22;5.95;;;;;;;11.88;86.80;101985.59;5018055;28;20044;-77
2023/07/07 02:36:19;;;;;;;5.82;5.22;;;;;;;11.88;86.71;101987.47;5014129;28;20688;-78
2023/07/07 02:38:45;;;;;;;6.32;5.60;;;;;;;11.87;86.85;101991.22;4990208;28;20040;-77
2023/07/07 02:41:11;;;;;;;6.15;4.95;;;;;;;11.85;86.76;101982.59;5011038;28;20032;-77
2023/07/07 02:43:37;;;;;;;7.75;5.90;;;;;;;11.82;86.79;101989.28;5024092;28;20088;-75
2023/07/07 02:46:03;;;;;;;6.75;5.95;;;;;;;11.81;86.86;101984.16;5012961;28;20046;-76
2023/07/07 02:48:30;;;;;;;;;;;;;;;11.82;86.95;101985.78;5025191;28;20034;-76
2023/07/07 02:51:01;;;;;;;8.30;6.55;;;;;;;11.77;87.41;101992.66;5008014;28;19913;-77
2023/07/07 02:53:31;;;;;;;6.75;5.65;;;;;;;11.75;87.29;101997.47;5014017;28;20125;-77
2023/07/07 02:55:57;;;;;;;7.13;6.40;;;;;;;11.74;87.26;101998.53;5012510;28;20404;-78
2023/07/07 02:58:24;;;;;;;6.57;5.88;;;;;;;11.75;87.37;101994.78;5013475;28;20061;-78
2023/07/07 03:00:49;;;;;;;8.77;7.25;;;;;;;11.72;88.15;101994.50;5014320;28;20465;-77
2023/07/07 03:03:17;;;;;;;6.85;5.10;;;;;;;11.70;87.53;101994.72;4995237;28;20033;-77
2023/07/07 03:05:43;;;;;;;7.95;6.72;;;;;;;11.70;87.41;101985.84;5005321;28;20045;-78
2023/07/07 03:08:09;;;;;;;6.03;5.43;;;;;;;11.71;87.29;101993.66;5010717;28;20037;-78
2023/07/07 03:10:38;;;;;;;6.00;5.35;;;;;;;11.71;87.48;101996.34;5007176;28;20050;-78
2023/07/07 03:13:04;;;;;;;10.68;5.97;;;;;;;11.71;87.49;102015.13;5009828;28;20037;-78
2023/07/07 03:15:38;;;;;;;7.45;6.20;;;;;;;11.69;87.76;102005.69;5010926;28;20049;-76
2023/07/07 03:18:07;;;;;;;6.60;5.93;;;;;;;11.68;87.85;102004.88;5030772;28;20032;-77
2023/07/07 03:20:33;;;;;;;7.15;5.93;;;;;;;11.70;88.01;102007.31;5008936;28;20115;-77
2023/07/07 03:22:59;;;;;;;7.20;6.32;;;;;;;11.69;87.67;102011.06;5009041;28;20037;-77
2023/07/07 03:25:26;;;;;;;7.65;6.78;;;;;;;11.68;88.20;102010.25;4987545;28;20061;-78
2023/07/07 03:27:52;;;;;;;7.78;6.80;;;;;;;11.70;88.33;102012.69;4991655;28;20120;-78
2023/07/07 03:30:27;;;;;;;8.15;6.07;;;;;;;11.69;87.61;102011.88;4995170;28;20045;-77
2023/07/07 03:33:01;;;;;;;7.68;5.72;;;;;;;11.69;87.63;102008.38;4999888;28;20100;-79
2023/07/07 03:35:29;;;;;;;7.82;6.10;;;;;;;11.70;87.55;102016.19;4993179;28;20044;-79
2023/07/07 03:37:55;;;;;;;8.02;6.88;;;;;;;11.68;87.77;102015.63;4997586;28;20037;-79
2023/07/07 03:40:20;;;;;;;7.93;5.57;;;;;;;11.71;87.82;102014.31;5042667;28;20033;-79
2023/07/07 03:42:47;;;;;;;7.68;6.88;;;;;;;11.71;88.40;102020.47;5011856;28;20108;-79
2023/07/07 03:45:15;;;;;;;7.97;6.63;;;;;;;11.72;88.93;102027.50;4999938;28;20526;-78
2023/07/07 03:47:44;;;;;;;6.65;5.50;;;;;;;11.75;88.67;102031.56;5032382;28;20108;-80
2023/07/07 03:50:11;;;;;;;10.88;7.68;;;;;;;11.77;89.50;102021.38;5007334;28;20044;-77
2023/07/07 03:52:37;;;;;;;9.27;6.90;;;;;;;11.77;90.20;102038.28;5021929;28;20378;-79
2023/07/07 03:55:04;;;;;;;6.72;5.68;;;;;;;11.80;89.38;102039.69;4992364;28;21202;-77
2023/07/07 03:57:30;;;;;;;9.27;7.70;;;;;;;11.81;90.37;102035.16;4998520;28;20051;-79
2023/07/07 03:59:55;;;;;;;9.07;7.18;;;;;;;11.83;90.30;102038.41;5009285;28;20087;-79
2023/07/07 04:02:21;;;;;;;7.40;6.45;;;;;;;11.86;90.16;102043.28;5013211;28;20045;-79
2023/07/07 04:04:47;;;;;;;8.73;7.50;;;;;;;11.88;90.46;102035.81;5010899;28;20156;-79
2023/07/07 04:07:13;;;;;;;8.35;7.07;;;;;;;11.89;90.25;102032.06;5011759;28;20163;-79
2023/07/07 04:09:39;;;;;;;10.38;7.28;;;;;;;11.93;90.19;102039.38;5010935;28;20041;-78
2023/07/07 04:12:09;;;;;;;9.52;7.78;;;;;;;11.96;90.09;102038.06;4994541;28;20037;-81
2023/07/07 04:14:35;;;;;;;7.13;6.25;;;;;;;11.98;90.03;102030.56;5007937;28;20041;-79
2023/07/07 04:17:01;;;;;;;;;;;;;;;11.99;89.86;102042.94;5011002;28;20507;-78
2023/07/07 04:19:27;;;;;;;7.80;6.85;;;;;;;12.01;90.40;102043.50;5008677;28;19940;-79
2023/07/07 04:21:53;;;;;;;7.82;6.20;;;;;;;12.04;90.35;102048.38;5006187;28;20041;-77
2023/07/07 04:24:20;;;;;;;6.68;5.30;;;;;;;12.09;89.82;102048.44;5009502;28;20041;-77
2023/07/07 04:26:47;;;;;;;7.90;6.68;;;;;;;12.14;89.98;102053.09;5005777;28;20129;-79
2023/07/07 04:29:13;;;;;;;7.70;6.55;;;;;;;12.16;90.17;102049.09;5007655;28;20030;-77
2023/07/07 04:31:42;;;;;;;11.30;6.63;;;;;;;12.16;90.37;102051.75;5026841;28;20059;-78
2023/07/07 04:34:08;;;;;;;7.93;5.90;;;;;;;12.24;89.82;102061.25;5026007;28;20033;-77
2023/07/07 04:36:34;;;;;;;7.60;6.78;;;;;;;12.29;89.96;102054.09;4992179;28;20076;-76
2023/07/07 04:38:59;;;;;;;9.02;8.05;;;;;;;12.35;90.49;102056.84;5025370;28;20045;-76
2023/07/07 04:41:25;;;;;;;7.20;6.32;;;;;;;12.39;89.81;102058.78;5023525;28;20040;-78
2023/07/07 04:43:57;;;;;;;9.25;6.90;;;;;;;12.44;89.30;102061.53;5025684;28;20178;-79
2023/07/07 04:46:27;;;;;;;8.38;6.13;;;;;;;12.51;89.29;102053.28;5013741;28;20037;-78
2023/07/07 04:48:52;;;;;;;9.85;7.85;;;;;;;12.56;89.92;102053.34;5015350;28;20072;-79
2023/07/07 04:51:19;;;;;;;7.63;6.60;;;;;;;12.63;89.86;102055.84;5011005;28;20041;-78
2023/07/07 04:53:45;;;;;;;7.47;6.18;;;;;;;12.71;89.99;102056.19;5014126;28;20450;-78
2023/07/07 04:56:22;;;;;;;9.30;7.05;;;;;;;12.79;90.28;102058.44;5007093;28;20135;-76
2023/07/07 04:58:50;;;;;;;7.38;6.63;;;;;;;12.87;90.18;102051.81;4993033;28;20068;-78
2023/07/07 05:01:19;;;;;;;8.15;6.55;;;;;;;12.95;89.36;102053.25;5011577;28;20040;-78
2023/07/07 05:03:48;;;;;;;8.85;6.10;;;;;;;13.02;88.92;102057.34;5022090;28;20099;-75
2023/07/07 05:06:14;;;;;;;8.40;6.25;;;;;;;13.10;88.68;102053.38;5022630;28;20111;-78
2023/07/07 05:08:41;;;;;;;8.65;6.97;;;;;;;13.15;88.67;102060.72;5020297;28;20037;-77
2023/07/07 05:11:10;;;;;;;7.63;6.80;;;;;;;13.20;89.20;102063.44;4997466;28;20088;-75
2023/07/07 05:13:36;;;;;;;7.97;6.18;;;;;;;13.26;89.13;102057.88;5019196;28;20049;-78
2023/07/07 05:16:07;;;;;;;10.23;7.38;;;;;;;13.33;87.89;102066.53;5009456;28;20029;-78
2023/07/07 05:18:34;;;;;;;6.88;5.93;;;;;;;13.37;88.41;102074.94;5029616;28;20434;-77
2023/07/07 05:21:00;;;;;;;9.02;6.30;;;;;;;13.46;87.37;102064.50;5004889;28;20053;-80
2023/07/07 05:23:26;;;;;;;;;;;;;;;13.54;86.49;102064.81;5024124;28;20243;-77
2023/07/07 05:25:52;;;;;;;7.38;5.85;;;;;;;13.62;86.48;102066.25;5010042;28;20358;-75
2023/07/07 05:28:18;;;;;;;8.57;6.30;;;;;;;13.72;86.00;102060.13;5009947;28;20091;-77
2023/07/07 05:30:44;;;;;;;7.05;5.82;;;;;;;13.79;84.58;102058.84;5011865;28;20041;-74
2023/07/07 05:33:10;;;;;;;7.50;5.28;;;;;;;13.89;84.39;102055.41;5022972;28;20034;-77
2023/07/07 05:35:35;;;;;;;7.55;5.97;;;;;;;13.97;84.14;102067.56;4997688;28;20095;-75
2023/07/07 05:38:02;;;;;;;6.60;5.90;;;;;;;14.04;84.64;102063.56;5039631;28;20507;-77
2023/07/07 05:40:28;;;;;;;5.82;5.22;;;;;;;14.10;83.93;102072.50;5007940;28;20087;-77
2023/07/07 05:42:55;;;;;;;5.82;5.20;;;;;;;14.17;83.35;102073.09;5014102;28;20041;-79
2023/07/07 05:45:23;;;;;;;6.80;4.43;;;;;;;14.22;83.13;102062.31;5014474;28;20029;-77
2023/07/07 05:47:48;;;;;;;5.93;4.45;;;;;;;14.30;82.91;102064.53;5002004;28;20065;-75
2023/07/07 05:50:14;;;;;;;5.47;4.35;;;;;;;14.34;82.75;102062.91;5030174;28;20033;-76
2023/07/07 05:52:39;;;;;;;6.32;4.63;;;;;;;14.37;83.82;102059.72;5029758;28;20044;-77
2023/07/07 05:55:06;;;;;;;5.65;4.75;;;;;;;14.47;83.30;102062.47;5040076;28;20049;-76
2023/07/07 05:57:31;;;;;;;6.07;4.10;;;;;;;14.59;82.16;102064.94;5014811;28;20087;-78
2023/07/07 05:59:57;;;;;;;5.30;4.43;;;;;;;14.69;81.83;102069.56;5019603;28;20061;-76
2023/07/07 06:02:23;;;;;;;4.57;3.78;;;;;;;14.82;81.61;102079.03;5035106;28;20056;-77
2023/07/07 06:04:48;;;;;;;6.90;4.53;;;;;;;14.89;81.17;102079.59;5026156;28;20659;-76
2023/07/07 06:07:14;;;;;;;6.32;4.15;;;;;;;14.99;80.37;102080.44;5019102;28;20056;-77
2023/07/07 06:09:40;;;;;;;5.95;4.00;;;;;;;15.08;80.38;102074.50;5010649;28;20040;-78
2023/07/07 06:12:07;;;;;;;5.57;4.18;;;;;;;15.16;80.51;102076.69;5025126;28;20120;-76
2023/07/07 06:14:33;;;;;;;6.15;4.22;;;;;;;15.26;80.12;102082.09;5013305;28;20044;-75
2023/07/07 06:16:58;;;;;;;6.32;4.13;;;;;;;15.31;79.31;102082.13;5026310;28;20033;-77
2023/07/07 06:19:24;;;;;;;5.35;4.22;;;;;;;15.42;79.84;102083.72;5016359;28;20080;-77
2023/07/07 06:21:50;;;;;;;5.50;4.18;;;;;;;15.50;78.85;102080.47;5021554;28;20033;-75
2023/07/07 06:24:15;;;;;;;6.68;4.80;;;;;;;15.60;78.08;102087.78;5027051;28;20032;-76
2023/07/07 06:26:41;;;;;;;6.50;3.65;;;;;;;15.68;78.12;102089.16;5032522;28;20048;-75
2023/07/07 06:29:07;;;;;;;5.55;3.58;;;;;;;15.79;78.70;102088.09;5016503;28;20029;-75
2023/07/07 06:31:32;;;;;;;5.35;4.07;;;;;;;15.92;77.47;102087.53;5027043;28;20037;-75
2023/07/07 06:33:58;;;;;;;5.60;4.32;;;;;;;16.02;77.40;102092.09;5024584;28;20473;-76
2023/07/07 06:36:24;;;;;;;6.07;3.80;;;;;;;16.13;77.40;102090.19;5019055;28;20612;-74
2023/07/07 06:38:49;;;;;;;5.20;4.20;;;;;;;16.22;77.32;102094.75;5000708;28;20040;-75
2023/07/07 06:41:20;;;;;;;8.57;3.65;;;;;;;16.35;76.78;102093.38;5026789;28;20029;-75
2023/07/07 06:43:45;;;;;;;7.07;3.85;;;;;;;16.45;76.29;102095.22;5032053;28;20038;-75
2023/07/07 06:46:14;;;;;;;6.80;3.97;;;;;;;16.55;76.03;102098.69;5007998;28;20048;-75
2023/07/07 06:48:40;;;;;;;5.05;3.75;;;;;;;16.62;76.60;102101.09;5027585;28;20523;-75
2023/07/07 06:51:06;;;;;;;7.03;4.30;;;;;;;16.75;76.68;102086.22;4996331;28;20033;-77
2023/07/07 06:53:32;;;;;;;5.75;3.70;;;;;;;16.90;76.69;102092.34;5012792;28;20029;-77
2023/07/07 06:55:58;;;;;;;5.80;4.05;;;;;;;16.98;75.29;102093.63;5008758;28;20033;-76
2023/07/07 06:58:23;;;;;;;4.93;3.92;;;;;;;17.09;74.93;102095.19;5029602;28;20025;-78
2023/07/07 07:00:49;;;;;;;;;;;;;;;17.23;72.58;102089.16;4998586;28;20037;-76
2023/07/07 07:03:15;;;;;;;4.70;3.40;;;;;;;17.36;73.58;102091.22;5014271;28;19978;-78
2023/07/07 07:05:40;;;;;;;;;;;;;;;17.49;73.14;102097.91;5024591;28;20041;-77
2023/07/07 07:08:06;;;;;;;3.92;3.50;;;;;;;17.63;72.50;102093.47;5023404;28;19925;-77
2023/07/07 07:10:32;;;;;;;;;;;;;;;17.73;71.62;102094.19;5009472;28;20072;-80
2023/07/07 07:12:57;;;;;;;3.95;3.28;;;;;;;17.81;71.57;102089.25;5021003;28;19920;-76
2023/07/07 07:15:23;;;;;;;;;;;;;;;17.93;70.75;102095.09;5011472;28;20040;-78
2023/07/07 07:17:49;;;;;;;4.55;3.45;;;;;;;18.07;71.30;102098.75;5008580;28;20059;-79
2023/07/07 07:20:17;;;;;;;;;;;;;;;18.15;70.45;102092.69;5006142;28;20622;-77
2023/07/07 07:22:43;;;;;;;6.40;3.50;;;;;;;18.23;70.07;102102.13;5017149;28;20375;-77
2023/07/07 07:25:09;;;;;;;7.65;3.90;;;;;;;18.35;69.09;102093.56;5003883;28;20041;-76
2023/07/07 07:27:37;;;;;;;;;;;;;;;18.44;69.46;102097.28;5001333;28;20038;-77
2023/07/07 07:30:05;;;;;;;6.07;4.53;;;;;;;18.53;69.11;102096.31;5028982;28;20012;-78
2023/07/07 07:32:30;;;;;;;3.85;3.15;;;;;;;18.66;68.87;102092.13;5012184;28;20033;-82
2023/07/07 07:34:56;;;;;;;;;;;;;;;18.78;68.75;102086.28;5031322;28;20347;-76
2023/07/07 07:37:22;;;;;;;6.80;3.38;;;;;;;18.90;69.18;102093.97;5011009;28;19975;-75
2023/07/07 07:39:48;;;;;;;3.97;2.92;;;;;;;19.02;68.20;102094.34;5027936;28;20041;-76
2023/07/07 07:42:13;;;;;;;4.85;3.28;;;;;;;19.05;67.67;102096.50;5008274;28;20030;-76
2023/07/07 07:44:39;;;;;;;6.05;3.30;;;;;;;19.22;67.30;102091.31;5011673;28;20042;-76
2023/07/07 07:47:06;;;;;;;5.30;3.85;;;;;;;19.29;67.13;102094.47;5008344;28;20036;-77
2023/07/07 07:49:32;;;;;;;8.20;3.65;;;;;;;19.39;67.22;102093.53;5025667;28;20033;-75
2023/07/07 07:51:58;;;;;;;4.32;2.70;;;;;;;19.55;67.72;102100.31;4998966;28;20409;-79
2023/07/07 07:54:23;;;;;;;;;;;;;;;19.69;65.47;102110.44;5009510;28;20040;-76
2023/07/07 07:56:50;;;;;;;5.43;3.10;;;;;;;19.78;66.60;102108.66;5006829;28;19917;-75
2023/07/07 07:59:16;;;;;;;5.40;3.75;;;;;;;19.90;65.32;102106.25;5040323;28;20029;-78
2023/07/07 08:01:42;;;;;;;5.95;3.05;;;;;;;20.02;65.15;102103.06;5010757;28;20071;-77
2023/07/07 08:04:08;;;;;;;5.18;3.65;;;;;;;20.14;65.43;102111.53;5008120;28;21521;-77
2023/07/07 08:06:35;;;;;;;4.85;2.72;;;;;;;20.26;64.85;102119.22;5021880;28;20036;-75
2023/07/07 08:09:02;;;;;;;4.72;2.90;;;;;;;20.37;63.28;102115.97;5008720;28;20033;-76
2023/07/07 08:11:40;;;;;;;4.40;2.55;;;;;;;20.52;62.73;102112.16;5004616;28;20034;-75
2023/07/07 08:14:09;;;;;;;;;;;;;;;20.56;61.82;102109.66;5042517;28;20132;-78
2023/07/07 08:16:35;;;;;;;6.22;2.30;;;;;;;20.66;63.92;102110.25;5010201;28;19931;-77
2023/07/07 08:19:01;;;;;;;3.40;2.50;;;;;;;20.79;61.48;102113.25;5001496;28;20116;-77
2023/07/07 08:21:26;;;;;;;4.43;2.70;;;;;;;20.90;61.54;102115.44;5004774;28;20065;-78
2023/07/07 08:23:52;;;;;;;5.03;2.50;;;;;;;21.01;60.54;102112.50;5001904;28;20030;-77
2023/07/07 08:26:18;;;;;;;5.88;3.08;;;;;;;21.16;59.87;102106.72;5006304;28;20424;-75
2023/07/07 08:28:44;;;;;;;8.27;2.65;;;;;;;21.24;59.33;102101.31;4988954;28;20037;-76
2023/07/07 08:31:10;;;;;;;4.85;3.28;;;;;;;21.27;59.43;102114.34;5011290;28;20037;-77
2023/07/07 08:33:36;;;;;;;4.55;2.40;;;;;;;21.40;56.59;102115.41;5023978;28;20142;-78
2023/07/07 08:36:01;;;;;;;3.92;2.38;;;;;;;21.52;58.89;102107.47;5019962;28;20133;-77
2023/07/07 08:38:27;;;;;;;3.60;2.38;;;;;;;21.62;58.95;102111.09;5004929;28;20412;-75
2023/07/07 08:40:54;;;;;;;3.75;2.42;;;;;;;21.69;57.86;102106.81;5002705;28;20029;-76
2023/07/07 08:43:22;;;;;;;5.03;2.35;;;;;;;21.81;56.71;102103.47;4979234;28;20532;-76
2023/07/07 08:45:58;;;;;;;5.20;2.70;;;;;;;21.85;56.30;102096.28;5007080;28;20048;-75
2023/07/07 08:48:45;;;;;;;6.32;2.40;;;;;;;22.00;55.28;102101.34;5008547;28;20033;-77
2023/07/07 08:51:18;;;;;;;5.15;3.00;;;;;;;22.06;54.27;102100.06;4988653;28;20037;-76
2023/07/07 08:53:56;;;;;;;5.45;2.70;;;;;;;22.15;55.58;102107.53;5020024;28;20037;-76
2023/07/07 08:56:35;;;;;;;5.68;2.55;;;;;;;22.16;54.59;102106.44;5017422;28;20784;-77
2023/07/07 08:59:07;;;;;;;6.22;2.63;;;;;;;22.31;54.30;102104.06;5022244;28;20025;-74
2023/07/07 09:01:58;;;;;;;4.55;2.53;;;;;;;22.43;53.64;102106.19;5005719;28;20164;-76
2023/07/07 09:04:38;;;;;;;4.60;2.40;;;;;;;22.48;50.95;102116.94;5008695;28;20045;-79
2023/07/07 09:07:21;;;;;;;3.97;2.47;;;;;;;22.59;52.39;102115.53;5009916;28;20404;-77
2023/07/07 09:09:56;;;;;;;4.03;2.17;;;;;;;22.72;53.74;102115.72;5003054;28;20026;-78
2023/07/07 09:12:44;;;;;;;5.60;2.20;;;;;;;22.83;50.25;102117.03;5004921;28;20041;-77
2023/07/07 09:15:18;;;;;;;5.05;3.20;;;;;;;22.88;48.46;102114.16;5006289;28;20045;-75
2023/07/07 09:17:47;;;;;;;4.20;1.92;;;;;;;23.02;50.93;102114.81;5017315;28;20042;-77
2023/07/07 09:20:15;;;;;;;4.20;2.92;;;;;;;23.16;52.17;102120.94;5003528;28;20045;-76
2023/07/07 09:22:55;;;;;;;3.42;2.40;;;;;;;23.23;50.76;102116.91;5001970;28;20037;-77
2023/07/07 09:25:40;;;;;;;4.03;2.65;;;;;;;23.32;51.47;102115.00;5022645;28;20604;-79
2023/07/07 09:28:10;;;;;;;3.67;2.38;;;;;;;23.40;51.17;102120.44;4998251;28;20040;-77
2023/07/07 09:30:47;;;;;;;4.60;1.95;;;;;;;23.49;54.46;102123.16;5019438;28;20036;-77
2023/07/07 09:33:16;;;;;;;5.95;2.60;;;;;;;23.48;46.59;102124.28;5016435;28;20041;-77
2023/07/07 09:36:01;;;;;;;2.95;1.77;;;;;;;23.50;47.74;102124.75;5020479;28;20099;-78
2023/07/07 09:38:53;;;;;;;4.32;2.03;;;;;;;23.60;45.79;102113.50;5020401;28;20033;-75
2023/07/07 09:41:31;;;;;;;2.90;2.05;;;;;;;23.64;44.34;102111.78;5014920;28;20663;-73
2023/07/07 09:44:12;;;;;;;4.30;2.05;;;;;;;23.73;43.80;102117.22;5016699;28;20043;-78
2023/07/07 09:46:57;;;;;;;4.70;2.47;;;;;;;23.75;43.43;102116.88;5023415;28;20046;-76
2023/07/07 09:49:43;;;;;;;4.00;2.72;;;;;;;23.84;48.68;102120.38;5041243;28;20040;-76
2023/07/07 09:52:27;;;;;;;5.20;2.78;;;;;;;23.95;46.73;102118.91;5023797;28;20038;-74
2023/07/07 09:54:56;;;;;;;3.75;1.80;;;;;;;24.03;45.46;102114.53;5007217;28;20049;-77
2023/07/07 09:57:29;;;;;;;3.78;2.17;;;;;;;24.08;44.40;102109.69;5020349;28;20041;-77
2023/07/07 09:59:58;;;;;;;5.20;1.92;;;;;;;24.14;44.72;102111.13;5028960;28;20402;-76
2023/07/07 10:02:25;;;;;;;5.00;2.78;;;;;;;24.21;46.59;102122.34;5029596;28;20040;-77
2023/07/07 10:05:03;;;;;;;3.75;1.88;;;;;;;24.27;42.86;102114.75;5010989;28;20042;-75
2023/07/07 10:07:38;;;;;;;3.15;1.75;;;;;;;24.33;43.10;102120.84;5006516;28;20496;-74
2023/07/07 10:10:05;;;;;;;3.95;1.80;;;;;;;24.42;44.17;102116.16;5006199;28;20108;-76
2023/07/07 10:12:31;;;;;;;2.88;1.58;;;;;;;24.55;46.59;102119.78;5011334;28;20061;-75
2023/07/07 10:14:58;;;;;;;4.10;2.00;;;;;;;24.58;44.41;102108.97;5013890;28;20410;-76
2023/07/07 10:17:43;;;;;;;5.50;2.20;;;;;;;24.60;40.22;102122.34;5007511;28;20041;-79
2023/07/07 10:20:09;;;;;;;2.58;2.03;;;;;;;24.66;45.53;102124.56;5013696;28;20512;-78
2023/07/07 10:22:36;;;;;;;4.00;1.77;;;;;;;24.73;43.95;102121.31;5035560;28;20131;-77
2023/07/07 10:25:05;;;;;;;5.05;1.92;;;;;;;24.76;40.56;102120.63;5013817;28;20061;-78
2023/07/07 10:27:31;;;;;;;3.30;1.60;;;;;;;24.85;45.10;102115.88;5031888;28;20290;-77
2023/07/07 10:30:03;;;;;;;4.07;1.80;;;;;;;24.94;39.36;102115.84;5009914;28;20037;-80
2023/07/07 10:32:31;;;;;;;3.03;1.90;;;;;;;24.96;40.96;102119.03;5027181;28;20399;-79
2023/07/07 10:34:58;;;;;;;4.32;2.17;;;;;;;24.97;41.32;102120.63;5035557;28;20032;-77
2023/07/07 10:37:29;;;;;;;3.40;2.33;;;;;;;24.99;41.02;102119.16;5038109;28;20103;-79
2023/07/07 10:39:57;;;;;;;3.03;1.85;;;;;;;25.07;43.71;102109.31;5024920;28;20037;-77
2023/07/07 10:42:25;;;;;;;4.93;2.10;;;;;;;25.19;39.89;102109.34;5014995;28;20825;-77
2023/07/07 10:44:52;;;;;;;2.67;1.70;;;;;;;25.25;40.68;102105.25;5025347;28;20112;-77
2023/07/07 10:47:21;;;;;;;4.13;2.25;;;;;;;25.29;43.06;102106.22;5027251;28;20033;-77
2023/07/07 10:49:47;;;;;;;3.13;1.80;;;;;;;25.41;42.57;102107.41;5013675;28;20030;-78
2023/07/07 10:52:36;;;;;;;2.83;2.03;;;;;;;25.43;44.60;102105.13;5029993;28;20561;-78
2023/07/07 10:55:27;;;;;;;4.13;2.03;;;;;;;25.60;41.22;102104.91;5011511;28;20623;-78
2023/07/07 10:58:12;;;;;;;2.72;1.73;;;;;;;25.74;41.36;102088.16;5012237;28;20061;-79
2023/07/07 11:00:45;;;;;;;3.42;1.77;;;;;;;25.85;39.91;102103.88;5008495;28;20037;-77
2023/07/07 11:03:37;;;;;;;4.85;1.90;;;;;;;25.97;42.94;102099.53;5013649;28;20110;-77
2023/07/07 11:06:26;;;;;;;3.47;1.88;;;;;;;25.98;43.36;102098.41;5025884;28;20112;-78
2023/07/07 11:09:11;;;;;;;2.80;1.73;;;;;;;26.04;43.55;102097.03;5002461;28;20049;-76
2023/07/07 11:12:17;;;;;;;3.75;1.70;;;;;;;26.14;39.51;102110.28;5026346;28;20041;-78
2023/07/07 11:14:58;;;;;;;3.95;1.83;;;;;;;26.18;39.14;102105.72;5023514;28;20436;-77
2023/07/07 11:17:46;;;;;;;4.28;2.55;;;;;;;26.20;38.46;102105.38;5006710;28;20456;-78
2023/07/07 11:20:25;;;;;;;4.50;2.42;;;;;;;26.18;37.42;102105.72;5007556;28;20616;-75
2023/07/07 11:23:00;;;;;;;2.85;1.80;;;;;;;26.14;35.97;102107.53;5014605;28;20116;-78
2023/07/07 11:25:32;;;;;;;3.55;2.10;;;;;;;26.11;35.11;102100.00;5011194;28;20489;-79
2023/07/07 11:28:05;;;;;;;;;;;;;;;26.25;36.31;102097.72;5011040;28;20072;-78
2023/07/07 11:30:50;;;;;;;4.72;2.28;;;;;;;26.28;36.79;102102.53;5023982;28;20375;-77
2023/07/07 11:33:19;;;;;;;5.20;2.25;;;;;;;26.36;37.50;102104.34;5010180;28;20033;-77
2023/07/07 11:36:14;;;;;;;2.95;1.67;;;;;;;26.48;38.19;102100.00;5010005;28;20479;-78
2023/07/07 11:38:53;;;;;;;2.55;1.55;;;;;;;26.50;37.19;102103.22;5033569;28;20041;-80
2023/07/07 11:41:24;;;;;;;4.82;2.63;;;;;;;26.50;35.44;102103.22;5042724;28;20045;-79
2023/07/07 11:44:28;;;;;;;3.92;1.92;;;;;;;26.53;35.65;102097.03;5023089;28;20048;-81